sensor_id;sensor_type;location;lat;lon;timestamp;pressure;altitude;pressure_sealevel;temperature;humidity
250;BME280;109;19.806;-70.704;2023-05-02T00:02:13;101397.47;;;27.12;65.81
250;BME280;109;19.806;-70.704;2023-05-02T00:04:40;101389.47;;;27.11;65.51
250;BME280;109;19.806;-70.704;2023-05-02T00:07:07;101393.56;;;27.18;64.85
250;BME280;109;19.806;-70.704;2023-05-02T00:09:33;101386.63;;;27.14;64.96
250;BME280;109;19.806;-70.704;2023-05-02T00:12:00;101372.84;;;27.20;64.61
250;BME280;109;19.806;-70.704;2023-05-02T00:14:27;101368.69;;;27.14;64.71
250;BME280;109;19.806;-70.704;2023-05-02T00:16:54;101374.31;;;27.10;64.73
250;BME280;109;19.806;-70.704;2023-05-02T00:19:20;101383.16;;;27.12;65.14
250;BME280;109;19.806;-70.704;2023-05-02T00:21:47;101382.44;;;27.08;65.40
250;BME280;109;19.806;-70.704;2023-05-02T00:24:16;101386.41;;;27.01;65.67
250;BME280;109;19.806;-70.704;2023-05-02T00:26:42;101380.50;;;26.60;64.94
250;BME280;109;19.806;-70.704;2023-05-02T00:29:09;101397.41;;;26.45;64.97
250;BME280;109;19.806;-70.704;2023-05-02T00:31:35;101410.09;;;26.05;63.65
250;BME280;109;19.806;-70.704;2023-05-02T00:34:02;101422.16;;;25.97;63.94
250;BME280;109;19.806;-70.704;2023-05-02T00:36:28;101419.13;;;25.86;64.72
250;BME280;109;19.806;-70.704;2023-05-02T00:38:55;101432.63;;;25.64;64.38
250;BME280;109;19.806;-70.704;2023-05-02T00:41:22;101442.97;;;25.53;65.33
250;BME280;109;19.806;-70.704;2023-05-02T00:43:48;101435.53;;;25.59;66.34
250;BME280;109;19.806;-70.704;2023-05-02T00:46:15;101437.63;;;25.53;66.70
250;BME280;109;19.806;-70.704;2023-05-02T00:48:42;101437.91;;;25.47;66.97
250;BME280;109;19.806;-70.704;2023-05-02T00:51:10;101446.53;;;25.34;67.08
250;BME280;109;19.806;-70.704;2023-05-02T00:53:39;101431.09;;;25.39;67.84
250;BME280;109;19.806;-70.704;2023-05-02T00:56:07;101432.09;;;25.37;68.01
250;BME280;109;19.806;-70.704;2023-05-02T00:58:35;101419.22;;;25.25;68.16
250;BME280;109;19.806;-70.704;2023-05-02T01:06:58;101413.88;;;25.25;68.12
250;BME280;109;19.806;-70.704;2023-05-02T01:15:09;101416.84;;;25.19;68.03
250;BME280;109;19.806;-70.704;2023-05-02T01:17:38;101425.81;;;25.18;68.45
250;BME280;109;19.806;-70.704;2023-05-02T01:20:09;101430.75;;;25.27;68.50
250;BME280;109;19.806;-70.704;2023-05-02T01:22:37;101434.38;;;25.26;67.56
250;BME280;109;19.806;-70.704;2023-05-02T01:25:36;101437.03;;;25.26;67.64
250;BME280;109;19.806;-70.704;2023-05-02T01:29:13;101431.09;;;25.19;67.20
250;BME280;109;19.806;-70.704;2023-05-02T01:31:34;101434.84;;;25.15;67.33
250;BME280;109;19.806;-70.704;2023-05-02T01:34:09;101427.88;;;25.11;67.30
250;BME280;109;19.806;-70.704;2023-05-02T01:36:40;101439.16;;;25.19;67.44
250;BME280;109;19.806;-70.704;2023-05-02T01:39:23;101436.97;;;25.27;67.39
250;BME280;109;19.806;-70.704;2023-05-02T01:41:58;101441.09;;;25.36;66.65
250;BME280;109;19.806;-70.704;2023-05-02T01:44:27;101443.84;;;25.34;67.10
250;BME280;109;19.806;-70.704;2023-05-02T01:47:04;101451.59;;;25.40;66.67
250;BME280;109;19.806;-70.704;2023-05-02T01:49:40;101449.84;;;25.39;66.54
250;BME280;109;19.806;-70.704;2023-05-02T01:52:10;101441.81;;;25.39;66.62
250;BME280;109;19.806;-70.704;2023-05-02T01:54:52;101452.19;;;25.47;66.23
250;BME280;109;19.806;-70.704;2023-05-02T01:57:41;101455.19;;;25.39;66.18
250;BME280;109;19.806;-70.704;2023-05-02T02:00:23;101463.69;;;25.49;66.59
250;BME280;109;19.806;-70.704;2023-05-02T02:02:51;101455.44;;;25.54;66.21
250;BME280;109;19.806;-70.704;2023-05-02T02:05:26;101450.81;;;25.57;66.24
250;BME280;109;19.806;-70.704;2023-05-02T02:07:53;101448.88;;;25.61;66.21
250;BME280;109;19.806;-70.704;2023-05-02T02:10:29;101451.69;;;25.58;65.83
250;BME280;109;19.806;-70.704;2023-05-02T02:13:26;101454.31;;;25.59;66.60
250;BME280;109;19.806;-70.704;2023-05-02T02:16:03;101455.09;;;25.61;67.27
250;BME280;109;19.806;-70.704;2023-05-02T02:18:38;101461.25;;;25.63;67.31
250;BME280;109;19.806;-70.704;2023-05-02T02:21:08;101459.38;;;25.65;66.21
250;BME280;109;19.806;-70.704;2023-05-02T02:23:42;101473.00;;;25.61;66.97
250;BME280;109;19.806;-70.704;2023-05-02T02:26:11;101471.56;;;25.72;67.46
250;BME280;109;19.806;-70.704;2023-05-02T02:28:45;101468.81;;;25.74;67.42
250;BME280;109;19.806;-70.704;2023-05-02T02:31:15;101468.06;;;25.70;67.40
250;BME280;109;19.806;-70.704;2023-05-02T02:33:47;101464.38;;;25.73;67.77
250;BME280;109;19.806;-70.704;2023-05-02T02:37:04;101462.41;;;25.76;68.05
250;BME280;109;19.806;-70.704;2023-05-02T02:39:38;101455.16;;;25.78;68.01
250;BME280;109;19.806;-70.704;2023-05-02T02:50:38;101465.59;;;25.66;68.18
250;BME280;109;19.806;-70.704;2023-05-02T02:53:18;101470.09;;;25.65;67.68
250;BME280;109;19.806;-70.704;2023-05-02T02:56:05;101473.88;;;25.61;67.95
250;BME280;109;19.806;-70.704;2023-05-02T02:59:01;101466.03;;;25.57;67.95
250;BME280;109;19.806;-70.704;2023-05-02T03:01:47;101470.31;;;25.61;67.54
250;BME280;109;19.806;-70.704;2023-05-02T03:04:26;101464.03;;;25.62;67.50
250;BME280;109;19.806;-70.704;2023-05-02T03:07:03;101460.22;;;25.66;67.05
250;BME280;109;19.806;-70.704;2023-05-02T03:09:43;101467.91;;;25.55;67.25
250;BME280;109;19.806;-70.704;2023-05-02T03:12:20;101476.09;;;25.52;66.77
250;BME280;109;19.806;-70.704;2023-05-02T03:15:45;101473.56;;;25.49;66.68
250;BME280;109;19.806;-70.704;2023-05-02T03:17:51;101471.50;;;25.35;66.66
250;BME280;109;19.806;-70.704;2023-05-02T03:20:18;101460.94;;;25.32;67.33
250;BME280;109;19.806;-70.704;2023-05-02T03:22:52;101459.13;;;25.32;66.94
250;BME280;109;19.806;-70.704;2023-05-02T03:25:18;101460.06;;;25.31;66.85
250;BME280;109;19.806;-70.704;2023-05-02T03:27:52;101449.34;;;25.31;66.53
250;BME280;109;19.806;-70.704;2023-05-02T03:30:19;101456.38;;;25.34;66.43
250;BME280;109;19.806;-70.704;2023-05-02T03:32:59;101459.06;;;25.34;66.56
250;BME280;109;19.806;-70.704;2023-05-02T03:35:33;101449.41;;;25.30;66.66
250;BME280;109;19.806;-70.704;2023-05-02T03:37:59;101456.56;;;25.29;66.87
250;BME280;109;19.806;-70.704;2023-05-02T03:40:33;101448.56;;;25.28;66.34
250;BME280;109;19.806;-70.704;2023-05-02T03:42:59;101451.66;;;25.19;66.27
250;BME280;109;19.806;-70.704;2023-05-02T03:45:33;101442.88;;;25.15;66.66
250;BME280;109;19.806;-70.704;2023-05-02T03:48:00;101437.53;;;25.15;66.09
250;BME280;109;19.806;-70.704;2023-05-02T03:50:34;101431.44;;;25.11;66.52
250;BME280;109;19.806;-70.704;2023-05-02T03:53:00;101439.28;;;25.16;66.66
250;BME280;109;19.806;-70.704;2023-05-02T03:55:43;101437.41;;;25.18;66.00
250;BME280;109;19.806;-70.704;2023-05-02T03:58:24;101429.16;;;25.23;66.31
250;BME280;109;19.806;-70.704;2023-05-02T04:01:13;101424.28;;;25.32;66.48
250;BME280;109;19.806;-70.704;2023-05-02T04:03:50;101422.78;;;25.25;66.52
250;BME280;109;19.806;-70.704;2023-05-02T04:06:25;101425.13;;;25.13;65.99
250;BME280;109;19.806;-70.704;2023-05-02T04:08:59;101420.44;;;25.18;66.57
250;BME280;109;19.806;-70.704;2023-05-02T04:11:52;101418.50;;;25.21;66.24
250;BME280;109;19.806;-70.704;2023-05-02T04:14:26;101413.22;;;25.20;66.27
250;BME280;109;19.806;-70.704;2023-05-02T04:16:55;101409.38;;;25.25;66.05
250;BME280;109;19.806;-70.704;2023-05-02T04:19:44;101400.97;;;25.34;66.20
250;BME280;109;19.806;-70.704;2023-05-02T04:22:21;101396.47;;;25.35;66.60
250;BME280;109;19.806;-70.704;2023-05-02T04:24:59;101394.50;;;25.38;66.60
250;BME280;109;19.806;-70.704;2023-05-02T04:27:33;101388.00;;;25.44;66.76
250;BME280;109;19.806;-70.704;2023-05-02T04:30:00;101382.44;;;25.49;66.35
250;BME280;109;19.806;-70.704;2023-05-02T04:32:34;101384.00;;;25.53;66.42
250;BME280;109;19.806;-70.704;2023-05-02T04:35:02;101384.00;;;25.53;66.27
250;BME280;109;19.806;-70.704;2023-05-02T04:37:35;101375.16;;;25.51;66.55
250;BME280;109;19.806;-70.704;2023-05-02T04:40:03;101377.56;;;25.57;66.59
250;BME280;109;19.806;-70.704;2023-05-02T04:42:37;101366.25;;;25.50;66.41
250;BME280;109;19.806;-70.704;2023-05-02T04:45:14;101363.59;;;25.50;66.15
250;BME280;109;19.806;-70.704;2023-05-02T04:47:49;101362.22;;;25.41;66.35
250;BME280;109;19.806;-70.704;2023-05-02T04:50:15;101355.91;;;25.42;66.36
250;BME280;109;19.806;-70.704;2023-05-02T04:52:49;101343.38;;;25.43;65.99
250;BME280;109;19.806;-70.704;2023-05-02T04:55:15;101345.13;;;25.44;66.23
250;BME280;109;19.806;-70.704;2023-05-02T04:58:05;101339.47;;;25.50;67.03
250;BME280;109;19.806;-70.704;2023-05-02T05:00:48;101330.28;;;25.56;66.86
250;BME280;109;19.806;-70.704;2023-05-02T05:03:22;101327.00;;;25.49;66.71
250;BME280;109;19.806;-70.704;2023-05-02T05:05:48;101319.41;;;25.40;67.06
250;BME280;109;19.806;-70.704;2023-05-02T05:08:23;101312.97;;;25.44;67.12
250;BME280;109;19.806;-70.704;2023-05-02T05:10:50;101317.06;;;25.51;67.27
250;BME280;109;19.806;-70.704;2023-05-02T05:13:24;101307.81;;;25.58;66.43
250;BME280;109;19.806;-70.704;2023-05-02T05:15:52;101311.13;;;25.63;66.58
250;BME280;109;19.806;-70.704;2023-05-02T05:18:35;101308.00;;;25.72;66.76
250;BME280;109;19.806;-70.704;2023-05-02T05:21:13;101297.75;;;25.80;66.72
250;BME280;109;19.806;-70.704;2023-05-02T05:23:40;101299.03;;;25.73;65.82
250;BME280;109;19.806;-70.704;2023-05-02T05:26:23;101301.78;;;25.72;66.18
250;BME280;109;19.806;-70.704;2023-05-02T05:28:57;101283.94;;;25.71;65.15
250;BME280;109;19.806;-70.704;2023-05-02T05:31:27;101272.44;;;25.69;65.47
250;BME280;109;19.806;-70.704;2023-05-02T05:34:01;101271.84;;;25.62;64.50
250;BME280;109;19.806;-70.704;2023-05-02T05:36:39;101274.16;;;25.70;64.94
250;BME280;109;19.806;-70.704;2023-05-02T05:39:12;101279.22;;;25.76;64.05
250;BME280;109;19.806;-70.704;2023-05-02T05:41:41;101274.16;;;25.70;63.55
250;BME280;109;19.806;-70.704;2023-05-02T05:44:17;101279.81;;;25.64;62.66
250;BME280;109;19.806;-70.704;2023-05-02T05:46:43;101280.53;;;25.67;62.55
250;BME280;109;19.806;-70.704;2023-05-02T05:49:19;101279.81;;;25.64;63.00
250;BME280;109;19.806;-70.704;2023-05-02T05:51:54;101284.41;;;25.62;63.78
250;BME280;109;19.806;-70.704;2023-05-02T05:54:21;101275.56;;;25.60;64.36
250;BME280;109;19.806;-70.704;2023-05-02T05:56:53;101277.59;;;25.55;64.76
250;BME280;109;19.806;-70.704;2023-05-02T05:59:42;101272.44;;;25.50;65.23
250;BME280;109;19.806;-70.704;2023-05-02T06:02:17;101261.91;;;25.47;65.27
250;BME280;109;19.806;-70.704;2023-05-02T06:04:45;101261.03;;;25.47;65.58
250;BME280;109;19.806;-70.704;2023-05-02T06:07:21;101255.75;;;25.45;65.19
250;BME280;109;19.806;-70.704;2023-05-02T06:09:48;101262.06;;;25.44;65.21
250;BME280;109;19.806;-70.704;2023-05-02T06:12:21;101260.97;;;25.48;64.89
250;BME280;109;19.806;-70.704;2023-05-02T06:14:48;101261.72;;;25.50;64.96
250;BME280;109;19.806;-70.704;2023-05-02T06:17:21;101250.06;;;25.51;65.04
250;BME280;109;19.806;-70.704;2023-05-02T06:19:56;101254.41;;;25.54;64.75
250;BME280;109;19.806;-70.704;2023-05-02T06:22:30;101246.31;;;25.55;64.76
250;BME280;109;19.806;-70.704;2023-05-02T06:24:56;101256.53;;;25.47;64.50
250;BME280;109;19.806;-70.704;2023-05-02T06:27:30;101243.34;;;25.42;64.17
250;BME280;109;19.806;-70.704;2023-05-02T06:29:56;101248.78;;;25.41;63.62
250;BME280;109;19.806;-70.704;2023-05-02T06:32:30;101245.03;;;25.45;64.17
250;BME280;109;19.806;-70.704;2023-05-02T06:34:57;101248.16;;;25.36;63.22
250;BME280;109;19.806;-70.704;2023-05-02T06:37:37;101240.44;;;25.28;63.97
250;BME280;109;19.806;-70.704;2023-05-02T06:40:11;101243.19;;;25.27;63.82
250;BME280;109;19.806;-70.704;2023-05-02T06:42:38;101237.91;;;25.25;63.65
250;BME280;109;19.806;-70.704;2023-05-02T06:45:10;101236.66;;;25.34;63.60
250;BME280;109;19.806;-70.704;2023-05-02T06:47:37;101234.84;;;25.34;63.25
250;BME280;109;19.806;-70.704;2023-05-02T06:50:10;101228.00;;;25.27;63.04
250;BME280;109;19.806;-70.704;2023-05-02T06:52:36;101231.75;;;25.23;62.81
250;BME280;109;19.806;-70.704;2023-05-02T06:55:10;101231.94;;;25.20;63.13
250;BME280;109;19.806;-70.704;2023-05-02T06:57:36;101223.81;;;25.22;63.21
250;BME280;109;19.806;-70.704;2023-05-02T07:00:09;101227.00;;;25.11;62.85
250;BME280;109;19.806;-70.704;2023-05-02T07:02:49;101233.06;;;25.15;62.79
250;BME280;109;19.806;-70.704;2023-05-02T07:05:15;101238.38;;;25.16;62.99
250;BME280;109;19.806;-70.704;2023-05-02T07:07:49;101230.72;;;25.08;62.74
250;BME280;109;19.806;-70.704;2023-05-02T07:10:16;101229.78;;;25.09;62.70
250;BME280;109;19.806;-70.704;2023-05-02T07:12:48;101231.91;;;25.01;63.16
250;BME280;109;19.806;-70.704;2023-05-02T07:15:15;101230.78;;;25.07;63.00
250;BME280;109;19.806;-70.704;2023-05-02T07:17:49;101225.09;;;25.13;63.17
250;BME280;109;19.806;-70.704;2023-05-02T07:20:23;101222.50;;;25.11;63.32
250;BME280;109;19.806;-70.704;2023-05-02T07:22:57;101218.19;;;25.09;63.29
250;BME280;109;19.806;-70.704;2023-05-02T07:25:23;101219.47;;;25.19;63.30
250;BME280;109;19.806;-70.704;2023-05-02T07:27:57;101225.09;;;25.13;63.56
250;BME280;109;19.806;-70.704;2023-05-02T07:30:23;101212.66;;;25.12;63.63
250;BME280;109;19.806;-70.704;2023-05-02T07:32:57;101219.06;;;25.09;63.54
250;BME280;109;19.806;-70.704;2023-05-02T07:35:23;101207.63;;;25.06;64.07
250;BME280;109;19.806;-70.704;2023-05-02T07:38:04;101211.22;;;25.05;63.88
250;BME280;109;19.806;-70.704;2023-05-02T07:40:37;101213.25;;;25.00;63.75
250;BME280;109;19.806;-70.704;2023-05-02T07:43:04;101212.63;;;24.95;63.70
250;BME280;109;19.806;-70.704;2023-05-02T07:45:36;101211.88;;;24.91;63.91
250;BME280;109;19.806;-70.704;2023-05-02T07:48:03;101217.25;;;24.91;64.06
250;BME280;109;19.806;-70.704;2023-05-02T07:50:35;101218.78;;;24.97;63.90
250;BME280;109;19.806;-70.704;2023-05-02T07:53:02;101217.16;;;24.93;64.18
250;BME280;109;19.806;-70.704;2023-05-02T07:55:35;101216.31;;;24.92;63.87
250;BME280;109;19.806;-70.704;2023-05-02T07:58:01;101215.28;;;24.95;63.70
250;BME280;109;19.806;-70.704;2023-05-02T08:00:35;101212.97;;;24.87;64.17
250;BME280;109;19.806;-70.704;2023-05-02T08:03:15;101208.59;;;24.85;64.35
250;BME280;109;19.806;-70.704;2023-05-02T08:05:41;101215.28;;;24.76;64.00
250;BME280;109;19.806;-70.704;2023-05-02T08:08:15;101214.13;;;24.82;64.05
250;BME280;109;19.806;-70.704;2023-05-02T08:10:41;101204.00;;;24.88;63.86
250;BME280;109;19.806;-70.704;2023-05-02T08:13:14;101216.56;;;24.86;63.76
250;BME280;109;19.806;-70.704;2023-05-02T08:15:41;101210.28;;;24.87;63.53
250;BME280;109;19.806;-70.704;2023-05-02T08:18:14;101223.09;;;24.81;63.96
250;BME280;109;19.806;-70.704;2023-05-02T08:20:47;101221.38;;;24.80;64.34
250;BME280;109;19.806;-70.704;2023-05-02T08:23:22;101225.91;;;24.78;64.10
250;BME280;109;19.806;-70.704;2023-05-02T08:25:48;101228.38;;;24.82;64.07
250;BME280;109;19.806;-70.704;2023-05-02T08:28:21;101229.31;;;24.81;64.16
250;BME280;109;19.806;-70.704;2023-05-02T08:30:47;101227.00;;;24.73;64.22
250;BME280;109;19.806;-70.704;2023-05-02T08:33:21;101226.16;;;24.71;64.59
250;BME280;109;19.806;-70.704;2023-05-02T08:35:47;101234.88;;;24.77;64.60
250;BME280;109;19.806;-70.704;2023-05-02T08:38:28;101237.81;;;24.70;64.57
250;BME280;109;19.806;-70.704;2023-05-02T08:41:02;101235.16;;;24.70;64.73
250;BME280;109;19.806;-70.704;2023-05-02T08:43:30;101236.97;;;24.70;64.54
250;BME280;109;19.806;-70.704;2023-05-02T08:46:05;101237.97;;;24.67;65.04
250;BME280;109;19.806;-70.704;2023-05-02T08:48:43;101232.66;;;24.66;65.12
250;BME280;109;19.806;-70.704;2023-05-02T08:51:12;101230.72;;;24.69;65.22
250;BME280;109;19.806;-70.704;2023-05-02T08:53:45;101233.69;;;24.63;65.10
250;BME280;109;19.806;-70.704;2023-05-02T08:56:12;101227.38;;;24.64;65.12
250;BME280;109;19.806;-70.704;2023-05-02T08:58:45;101243.44;;;24.64;65.25
250;BME280;109;19.806;-70.704;2023-05-02T09:01:32;101238.97;;;24.65;65.44
250;BME280;109;19.806;-70.704;2023-05-02T09:04:07;101239.97;;;24.62;65.17
250;BME280;109;19.806;-70.704;2023-05-02T09:06:35;101247.19;;;24.60;65.50
250;BME280;109;19.806;-70.704;2023-05-02T09:09:08;101243.56;;;24.61;65.07
250;BME280;109;19.806;-70.704;2023-05-02T09:11:35;101250.22;;;24.53;64.98
250;BME280;109;19.806;-70.704;2023-05-02T09:14:14;101259.31;;;24.49;65.40
250;BME280;109;19.806;-70.704;2023-05-02T09:16:49;101252.22;;;24.48;65.65
250;BME280;109;19.806;-70.704;2023-05-02T09:19:25;101253.38;;;24.42;65.96
250;BME280;109;19.806;-70.704;2023-05-02T09:22:06;101246.94;;;24.46;66.00
250;BME280;109;19.806;-70.704;2023-05-02T09:24:40;101259.44;;;24.46;65.96
250;BME280;109;19.806;-70.704;2023-05-02T09:27:06;101254.97;;;24.46;66.04
250;BME280;109;19.806;-70.704;2023-05-02T09:29:40;101252.38;;;24.45;66.08
250;BME280;109;19.806;-70.704;2023-05-02T09:32:09;101266.69;;;24.44;66.34
250;BME280;109;19.806;-70.704;2023-05-02T09:35:05;101271.31;;;24.40;66.15
250;BME280;109;19.806;-70.704;2023-05-02T09:37:39;101272.81;;;24.46;66.08
250;BME280;109;19.806;-70.704;2023-05-02T09:40:13;101276.25;;;24.49;66.32
250;BME280;109;19.806;-70.704;2023-05-02T09:42:47;101274.13;;;24.57;65.95
250;BME280;109;19.806;-70.704;2023-05-02T09:45:23;101276.78;;;24.57;65.88
250;BME280;109;19.806;-70.704;2023-05-02T09:48:01;101280.34;;;24.58;66.04
250;BME280;109;19.806;-70.704;2023-05-02T09:50:35;101281.34;;;24.55;66.20
250;BME280;109;19.806;-70.704;2023-05-02T09:53:07;101282.91;;;24.59;66.15
250;BME280;109;19.806;-70.704;2023-05-02T09:55:41;101286.28;;;24.64;65.53
250;BME280;109;19.806;-70.704;2023-05-02T09:58:19;101283.72;;;24.61;65.41
250;BME280;109;19.806;-70.704;2023-05-02T10:00:57;101297.25;;;24.58;65.38
250;BME280;109;19.806;-70.704;2023-05-02T10:03:37;101294.78;;;24.54;65.39
250;BME280;109;19.806;-70.704;2023-05-02T10:06:08;101297.59;;;24.51;65.61
250;BME280;109;19.806;-70.704;2023-05-02T10:08:41;101304.00;;;24.47;65.34
250;BME280;109;19.806;-70.704;2023-05-02T10:11:11;101311.84;;;24.51;65.78
250;BME280;109;19.806;-70.704;2023-05-02T10:13:45;101300.47;;;24.46;65.77
250;BME280;109;19.806;-70.704;2023-05-02T10:16:12;101307.34;;;24.52;65.86
250;BME280;109;19.806;-70.704;2023-05-02T10:19:00;101310.50;;;24.61;65.27
250;BME280;109;19.806;-70.704;2023-05-02T10:21:35;101316.72;;;24.62;65.30
250;BME280;109;19.806;-70.704;2023-05-02T10:24:08;101319.38;;;24.62;65.13
250;BME280;109;19.806;-70.704;2023-05-02T10:26:42;101323.75;;;24.64;65.32
250;BME280;109;19.806;-70.704;2023-05-02T10:29:10;101321.19;;;24.61;65.06
250;BME280;109;19.806;-70.704;2023-05-02T10:34:17;101326.41;;;24.64;65.02
250;BME280;109;19.806;-70.704;2023-05-02T10:37:04;101323.88;;;24.61;65.01
250;BME280;109;19.806;-70.704;2023-05-02T10:39:38;101321.06;;;24.64;65.05
250;BME280;109;19.806;-70.704;2023-05-02T10:42:04;101321.81;;;24.68;64.88
250;BME280;109;19.806;-70.704;2023-05-02T10:44:39;101323.56;;;24.69;64.99
250;BME280;109;19.806;-70.704;2023-05-02T10:47:25;101327.34;;;24.63;65.12
250;BME280;109;19.806;-70.704;2023-05-02T10:50:01;101334.25;;;24.69;64.96
250;BME280;109;19.806;-70.704;2023-05-02T10:52:37;101334.44;;;24.64;65.13
250;BME280;109;19.806;-70.704;2023-05-02T10:55:20;101334.44;;;24.64;65.13
250;BME280;109;19.806;-70.704;2023-05-02T11:00:29;101343.00;;;24.72;64.97
250;BME280;109;19.806;-70.704;2023-05-02T11:02:57;101343.72;;;24.78;64.87
250;BME280;109;19.806;-70.704;2023-05-02T11:05:24;101355.47;;;24.73;64.90
250;BME280;109;19.806;-70.704;2023-05-02T11:10:47;101355.59;;;24.70;64.67
250;BME280;109;19.806;-70.704;2023-05-02T11:13:13;101361.63;;;24.75;64.71
250;BME280;109;19.806;-70.704;2023-05-02T11:18:12;101366.56;;;25.05;63.61
250;BME280;109;19.806;-70.704;2023-05-02T11:20:41;101371.38;;;25.17;63.58
250;BME280;109;19.806;-70.704;2023-05-02T11:25:48;101369.47;;;25.58;62.72
250;BME280;109;19.806;-70.704;2023-05-02T11:31:08;101372.28;;;25.93;62.44
250;BME280;109;19.806;-70.704;2023-05-02T11:33:35;101374.13;;;26.09;61.29
250;BME280;109;19.806;-70.704;2023-05-02T11:36:02;101375.19;;;26.24;61.58
250;BME280;109;19.806;-70.704;2023-05-02T11:38:37;101383.69;;;26.32;60.96
250;BME280;109;19.806;-70.704;2023-05-02T11:41:04;101386.19;;;26.54;61.48
250;BME280;109;19.806;-70.704;2023-05-02T11:43:31;101384.28;;;26.73;60.45
250;BME280;109;19.806;-70.704;2023-05-02T11:45:58;101371.16;;;26.84;60.54
250;BME280;109;19.806;-70.704;2023-05-02T11:48:26;101382.16;;;26.97;60.52
250;BME280;109;19.806;-70.704;2023-05-02T11:53:23;101387.16;;;27.20;59.91
250;BME280;109;19.806;-70.704;2023-05-02T11:55:57;101379.72;;;27.26;59.18
250;BME280;109;19.806;-70.704;2023-05-02T11:58:29;101386.06;;;27.40;58.87
250;BME280;109;19.806;-70.704;2023-05-02T12:00:58;101395.22;;;27.53;58.18
250;BME280;109;19.806;-70.704;2023-05-02T12:03:29;101390.72;;;27.54;57.95
250;BME280;109;19.806;-70.704;2023-05-02T12:06:07;101396.97;;;27.37;57.76
250;BME280;109;19.806;-70.704;2023-05-02T12:08:36;101399.31;;;27.28;58.41
250;BME280;109;19.806;-70.704;2023-05-02T12:11:02;101395.75;;;27.27;58.21
250;BME280;109;19.806;-70.704;2023-05-02T12:13:29;101395.72;;;27.44;58.38
250;BME280;109;19.806;-70.704;2023-05-02T12:15:56;101397.28;;;27.48;58.71
250;BME280;109;19.806;-70.704;2023-05-02T12:18:24;101396.19;;;27.52;59.17
250;BME280;109;19.806;-70.704;2023-05-02T12:20:53;101403.22;;;27.55;59.31
250;BME280;109;19.806;-70.704;2023-05-02T12:23:22;101403.81;;;27.60;58.55
250;BME280;109;19.806;-70.704;2023-05-02T12:25:48;101402.69;;;27.64;57.85
250;BME280;109;19.806;-70.704;2023-05-02T12:28:19;101408.69;;;27.69;58.50
250;BME280;109;19.806;-70.704;2023-05-02T12:30:49;101416.41;;;27.75;58.88
250;BME280;109;19.806;-70.704;2023-05-02T12:33:17;101409.38;;;27.88;58.52
250;BME280;109;19.806;-70.704;2023-05-02T12:35:44;101416.34;;;28.08;58.29
250;BME280;109;19.806;-70.704;2023-05-02T12:38:16;101408.28;;;28.08;57.88
250;BME280;109;19.806;-70.704;2023-05-02T12:40:46;101417.97;;;28.11;58.30
250;BME280;109;19.806;-70.704;2023-05-02T12:43:14;101418.84;;;28.11;58.08
250;BME280;109;19.806;-70.704;2023-05-02T12:45:40;101413.66;;;28.08;58.12
250;BME280;109;19.806;-70.704;2023-05-02T12:48:27;101415.09;;;28.14;57.63
250;BME280;109;19.806;-70.704;2023-05-02T12:50:54;101406.84;;;28.17;58.35
250;BME280;109;19.806;-70.704;2023-05-02T12:53:42;101411.69;;;28.26;57.83
250;BME280;109;19.806;-70.704;2023-05-02T12:56:10;101407.34;;;28.23;57.93
250;BME280;109;19.806;-70.704;2023-05-02T12:58:41;101415.25;;;28.26;58.05
250;BME280;109;19.806;-70.704;2023-05-02T13:01:08;101413.03;;;28.19;58.06
250;BME280;109;19.806;-70.704;2023-05-02T13:03:35;101410.75;;;28.11;58.05
250;BME280;109;19.806;-70.704;2023-05-02T13:06:02;101422.22;;;28.15;58.43
250;BME280;109;19.806;-70.704;2023-05-02T13:08:29;101420.06;;;28.21;58.34
250;BME280;109;19.806;-70.704;2023-05-02T13:10:55;101431.81;;;28.35;58.35
250;BME280;109;19.806;-70.704;2023-05-02T13:13:22;101424.03;;;28.30;57.93
250;BME280;109;19.806;-70.704;2023-05-02T13:15:49;101417.91;;;28.42;58.19
250;BME280;109;19.806;-70.704;2023-05-02T13:18:15;101428.38;;;28.33;58.46
250;BME280;109;19.806;-70.704;2023-05-02T13:20:42;101433.28;;;28.40;58.47
250;BME280;109;19.806;-70.704;2023-05-02T13:23:08;101430.84;;;28.36;58.39
250;BME280;109;19.806;-70.704;2023-05-02T13:25:35;101440.19;;;28.30;58.55
250;BME280;109;19.806;-70.704;2023-05-02T13:28:01;101435.75;;;28.29;58.60
250;BME280;109;19.806;-70.704;2023-05-02T13:30:28;101434.81;;;28.14;58.21
250;BME280;109;19.806;-70.704;2023-05-02T13:32:54;101446.25;;;28.34;59.01
250;BME280;109;19.806;-70.704;2023-05-02T13:35:23;101439.81;;;28.36;58.61
250;BME280;109;19.806;-70.704;2023-05-02T13:37:50;101443.03;;;28.27;59.11
250;BME280;109;19.806;-70.704;2023-05-02T13:40:17;101436.53;;;28.31;58.71
250;BME280;109;19.806;-70.704;2023-05-02T13:42:43;101441.91;;;28.31;59.00
250;BME280;109;19.806;-70.704;2023-05-02T13:45:10;101440.31;;;28.43;59.03
250;BME280;109;19.806;-70.704;2023-05-02T13:47:52;101450.00;;;28.47;58.45
250;BME280;109;19.806;-70.704;2023-05-02T13:50:19;101445.09;;;28.38;58.78
250;BME280;109;19.806;-70.704;2023-05-02T13:52:46;101444.16;;;28.39;58.71
250;BME280;109;19.806;-70.704;2023-05-02T13:55:12;101448.44;;;28.27;59.21
250;BME280;109;19.806;-70.704;2023-05-02T13:57:39;101445.19;;;28.52;59.00
250;BME280;109;19.806;-70.704;2023-05-02T14:00:06;101442.94;;;28.60;59.03
250;BME280;109;19.806;-70.704;2023-05-02T14:02:34;101441.72;;;28.80;58.06
250;BME280;109;19.806;-70.704;2023-05-02T14:05:01;101442.81;;;28.91;57.78
250;BME280;109;19.806;-70.704;2023-05-02T14:07:28;101446.75;;;28.86;58.24
250;BME280;109;19.806;-70.704;2023-05-02T14:09:54;101444.88;;;29.02;57.71
250;BME280;109;19.806;-70.704;2023-05-02T14:12:21;101441.13;;;29.05;57.99
250;BME280;109;19.806;-70.704;2023-05-02T14:14:47;101446.03;;;28.98;57.54
250;BME280;109;19.806;-70.704;2023-05-02T14:17:14;101445.69;;;28.88;58.00